Time;durP1;ratioP1;P1;durP2;ratioP2;P2;SDS_P1;SDS_P2;PMS_P1;PMS_P2;Temp;Humidity;BMP_temperature;BMP_pressure;BME280_temperature;BME280_humidity;BME280_pressure;Samples;Min_cycle;Max_cycle;Signal;HPM_P1;HPM_P2
2022/01/30 00:01:07;;;;;;;61.38;34.13;;;0.20;99.90;;;;;;4991235;28;20049;-72
2022/01/30 00:03:36;;;;;;;61.88;33.75;;;0.30;99.90;;;;;;4990638;28;20050;-74
2022/01/30 00:06:04;;;;;;;62.53;35.15;;;0.40;99.90;;;;;;4956329;28;20386;-73
2022/01/30 00:08:32;;;;;;;73.60;37.25;;;0.40;99.90;;;;;;4974368;28;20042;-78
2022/01/30 00:11:07;;;;;;;78.68;40.55;;;0.40;99.90;;;;;;4958178;28;20133;-76
2022/01/30 00:13:37;;;;;;;78.70;40.05;;;0.30;99.90;;;;;;4974444;28;20046;-73
2022/01/30 00:16:08;;;;;;;73.65;41.35;;;0.10;99.90;;;;;;4975633;28;20436;-77
2022/01/30 00:26:32;;;;;;;79.32;45.28;;;0.00;99.90;;;;;;5007017;28;20050;-76
2022/01/30 00:29:00;;;;;;;80.10;42.55;;;0.10;99.90;;;;;;4959573;28;20050;-78
2022/01/30 00:31:28;;;;;;;76.25;43.40;;;0.20;99.90;;;;;;4959056;28;20049;-73
2022/01/30 00:34:15;;;;;;;69.85;39.22;;;0.20;99.90;;;;;;4992169;28;20118;-73
2022/01/30 00:36:42;;;;;;;74.10;40.58;;;0.10;99.90;;;;;;4991598;28;20050;-76
2022/01/30 00:39:10;;;;;;;67.65;34.95;;;0.10;99.90;;;;;;4991974;28;20060;-76
2022/01/30 00:41:37;;;;;;;45.25;26.17;;;0.20;99.90;;;;;;4991870;28;20046;-78
2022/01/30 00:44:05;;;;;;;36.83;21.23;;;-0.10;99.90;;;;;;4992054;28;20038;-74
2022/01/30 00:46:32;;;;;;;32.17;21.30;;;-0.20;99.90;;;;;;4991308;28;20034;-77
2022/01/30 00:48:59;;;;;;;24.17;16.00;;;0.00;99.90;;;;;;4991900;28;20104;-74
2022/01/30 00:51:26;;;;;;;29.33;18.45;;;-0.30;99.90;;;;;;4991756;28;20046;-74
2022/01/30 00:53:53;;;;;;;29.42;16.75;;;-0.50;99.90;;;;;;4992025;28;20092;-74
2022/01/30 00:56:21;;;;;;;33.33;19.67;;;-0.40;99.90;;;;;;4991712;28;20166;-75
2022/01/30 00:58:48;;;;;;;39.88;23.52;;;-0.10;99.90;;;;;;4992043;28;20113;-76
2022/01/30 01:01:15;;;;;;;36.90;23.65;;;0.10;99.90;;;;;;4990959;28;20401;-75
2022/01/30 01:03:42;;;;;;;40.85;21.30;;;0.20;99.90;;;;;;4990972;28;20054;-73
2022/01/30 01:06:10;;;;;;;33.63;21.52;;;0.10;99.90;;;;;;4991173;28;20049;-72
2022/01/30 01:08:50;;;;;;;38.20;21.67;;;0.00;99.90;;;;;;4989232;28;20061;-72
2022/01/30 01:24:40;;;;;;;64.32;37.17;;;-0.50;99.90;;;;;;4990214;28;20072;-72
2022/01/30 01:27:08;;;;;;;66.00;36.42;;;-0.50;99.90;;;;;;4990116;28;20050;-75
2022/01/30 01:29:35;;;;;;;61.45;33.92;;;-0.50;99.90;;;;;;4990334;28;20062;-75
2022/01/30 01:32:03;;;;;;;82.65;43.65;;;-0.40;99.90;;;;;;4991090;28;20057;-76
2022/01/30 01:34:34;;;;;;;109.90;54.30;;;-0.40;99.90;;;;;;4990963;28;20045;-72
2022/01/30 01:37:01;;;;;;;;;;;-0.40;99.90;;;;;;4991659;28;20053;-72
2022/01/30 01:39:29;;;;;;;94.68;49.03;;;-0.60;99.90;;;;;;4991781;28;19932;-72
2022/01/30 01:41:56;;;;;;;87.68;44.00;;;-0.80;99.90;;;;;;4991116;28;20046;-70
2022/01/30 01:44:49;;;;;;;92.72;42.30;;;-0.60;99.90;;;;;;4991056;28;20132;-73
2022/01/30 01:47:20;;;;;;;71.40;38.97;;;-0.60;99.90;;;;;;4994967;28;20050;-72
2022/01/30 01:49:50;;;;;;;89.60;42.45;;;-0.40;99.90;;;;;;4994611;28;20478;-74
2022/01/30 01:52:23;;;;;;;102.38;54.00;;;-0.60;99.90;;;;;;4994977;28;20054;-71
2022/01/30 01:54:54;;;;;;;107.13;56.28;;;-0.60;99.90;;;;;;4995061;28;20125;-71
2022/01/30 01:57:21;;;;;;;;;;;-0.60;99.90;;;;;;4995228;28;20057;-72
2022/01/30 01:59:49;;;;;;;85.78;44.22;;;-0.70;99.90;;;;;;4994748;28;20289;-71
2022/01/30 02:02:16;;;;;;;76.55;42.75;;;-0.70;99.90;;;;;;4994431;28;20054;-72
2022/01/30 02:04:45;;;;;;;68.22;38.65;;;-0.70;99.90;;;;;;4994920;28;20046;-72
2022/01/30 02:10:31;;;;;;;76.10;41.55;;;-0.70;99.90;;;;;;4896684;29;20063;-73
2022/01/30 02:13:14;;;;;;;69.97;37.00;;;-0.80;99.90;;;;;;4896220;29;20440;-72
2022/01/30 02:23:57;;;;;;;58.10;35.10;;;-0.90;99.90;;;;;;4958604;28;20051;-72
2022/01/30 02:24:16;;;;;;;68.60;36.88;;;-1.10;99.90;;;;;;4986411;28;20046;-72
2022/01/30 02:26:45;;;;;;;47.28;28.55;;;-1.30;99.90;;;;;;4994045;28;20478;-72
2022/01/30 02:29:13;;;;;;;56.85;31.92;;;-1.10;99.90;;;;;;4994192;28;20050;-72
2022/01/30 02:31:42;;;;;;;48.00;29.50;;;-1.30;99.90;;;;;;4994255;28;20038;-73
2022/01/30 02:34:09;;;;;;;52.78;27.98;;;-1.20;99.90;;;;;;4994260;28;20054;-70
2022/01/30 02:36:49;;;;;;;42.58;25.77;;;-1.20;99.90;;;;;;4993751;28;20050;-72
2022/01/30 02:39:18;;;;;;;43.60;24.70;;;-1.20;99.90;;;;;;4994034;28;20049;-71
2022/01/30 02:41:46;;;;;;;41.95;23.73;;;-1.10;99.90;;;;;;4993916;28;20414;-71
2022/01/30 02:46:51;;;;;;;44.45;22.90;;;-1.10;99.90;;;;;;4993117;28;20054;-71
2022/01/30 02:52:03;;;;;;;39.72;20.80;;;-1.40;99.90;;;;;;4993101;28;20050;-72
2022/01/30 02:54:31;;;;;;;27.40;19.27;;;-1.40;99.90;;;;;;4993894;28;20037;-73
2022/01/30 02:56:58;;;;;;;32.15;18.45;;;-1.30;99.90;;;;;;4992256;28;20412;-71
2022/01/30 02:59:26;;;;;;;29.67;17.83;;;-1.10;99.90;;;;;;4993712;28;20051;-71
2022/01/30 03:01:54;;;;;;;35.47;20.70;;;-1.20;99.90;;;;;;5008392;28;20054;-72
2022/01/30 03:04:21;;;;;;;28.77;18.80;;;-1.30;99.90;;;;;;4993523;28;20043;-71
2022/01/30 03:06:49;;;;;;;30.00;19.15;;;-1.30;99.90;;;;;;4993057;28;20518;-73
2022/01/30 03:09:16;;;;;;;36.85;19.60;;;-1.30;99.90;;;;;;4993844;28;20058;-73
2022/01/30 03:11:43;;;;;;;33.00;20.23;;;-1.30;99.90;;;;;;4993418;28;20057;-73
2022/01/30 03:14:10;;;;;;;29.90;18.30;;;-1.40;99.90;;;;;;4993374;28;20042;-72
2022/01/30 03:16:37;;;;;;;29.13;16.98;;;-1.40;99.90;;;;;;4992632;28;20058;-73
2022/01/30 03:19:05;;;;;;;28.10;17.63;;;-1.50;99.90;;;;;;4993276;28;20030;-72
2022/01/30 03:21:32;;;;;;;31.60;17.60;;;-1.50;99.90;;;;;;4993066;28;20061;-73
2022/01/30 03:23:59;;;;;;;30.45;16.80;;;-1.50;99.90;;;;;;4976246;28;20069;-73
2022/01/30 03:26:26;;;;;;;29.75;18.17;;;-1.30;99.90;;;;;;4992908;28;20054;-72
2022/01/30 03:29:03;;;;;;;30.65;18.08;;;-1.20;99.90;;;;;;4992960;28;20125;-72
2022/01/30 03:31:30;;;;;;;27.75;18.52;;;-1.10;99.90;;;;;;4993038;28;20105;-74
2022/01/30 03:33:58;;;;;;;32.55;19.00;;;-1.20;99.90;;;;;;4992888;28;20128;-73
2022/01/30 03:36:25;;;;;;;26.08;17.05;;;-1.20;99.90;;;;;;4992519;28;20053;-72
2022/01/30 03:38:52;;;;;;;34.40;18.98;;;-1.10;99.90;;;;;;4993319;28;20039;-73
2022/01/30 03:41:20;;;;;;;32.53;19.35;;;-1.10;99.90;;;;;;4992616;28;20104;-72
2022/01/30 03:43:47;;;;;;;32.40;18.75;;;-1.30;99.90;;;;;;4992607;28;20359;-74
2022/01/30 03:46:14;;;;;;;35.75;20.17;;;-1.20;99.90;;;;;;4992779;28;20054;-72
2022/01/30 03:48:42;;;;;;;34.40;19.20;;;-1.20;99.90;;;;;;4992713;28;20042;-72
2022/01/30 03:51:09;;;;;;;33.95;18.65;;;-1.30;99.90;;;;;;4992707;28;20049;-73
2022/01/30 03:53:37;;;;;;;29.73;18.38;;;-1.40;99.90;;;;;;4992791;28;20419;-72
2022/01/30 03:56:04;;;;;;;32.55;19.23;;;-1.30;99.90;;;;;;4975387;28;20038;-71
2022/01/30 03:58:33;;;;;;;28.40;17.85;;;-1.30;99.90;;;;;;4992316;28;20046;-73
2022/01/30 04:01:00;;;;;;;29.85;17.92;;;-1.30;99.90;;;;;;4992715;28;20049;-73
2022/01/30 04:03:28;;;;;;;29.83;17.67;;;-1.30;99.90;;;;;;4991873;28;20046;-74
2022/01/30 04:05:55;;;;;;;28.13;16.92;;;-1.30;99.90;;;;;;4992612;28;20040;-73
2022/01/30 04:08:23;;;;;;;25.77;16.70;;;-1.40;99.90;;;;;;4992566;28;20050;-74
2022/01/30 04:10:50;;;;;;;26.63;16.20;;;-1.50;99.90;;;;;;4992462;28;20035;-74
2022/01/30 04:13:18;;;;;;;29.55;17.00;;;-1.40;99.90;;;;;;4991800;28;20056;-74
2022/01/30 04:15:45;;;;;;;31.20;17.73;;;-1.50;99.90;;;;;;4992226;28;20440;-74
2022/01/30 04:18:13;;;;;;;29.52;19.13;;;-1.40;99.90;;;;;;4992083;28;20050;-74
2022/01/30 04:20:40;;;;;;;34.05;21.13;;;-1.40;99.90;;;;;;4992160;28;20045;-73
2022/01/30 04:23:08;;;;;;;31.15;18.92;;;-1.70;99.90;;;;;;4992152;28;20058;-74
2022/01/30 04:25:35;;;;;;;30.90;19.02;;;-1.70;99.90;;;;;;4992156;28;20121;-74
2022/01/30 04:28:02;;;;;;;31.25;17.73;;;-2.00;99.90;;;;;;4991734;28;20050;-74
2022/01/30 04:30:30;;;;;;;29.52;18.10;;;-2.30;99.90;;;;;;4992272;28;20042;-74
2022/01/30 04:32:58;;;;;;;27.23;17.27;;;-1.90;99.90;;;;;;4991487;28;20521;-73
2022/01/30 04:35:28;;;;;;;28.15;17.60;;;-1.50;99.90;;;;;;4974734;28;20512;-73
2022/01/30 04:59:43;;;;;;;38.90;23.08;;;-1.80;99.90;;;;;;4991690;28;20042;-74
2022/01/30 05:02:43;;;;;;;40.17;24.92;;;-1.80;99.90;;;;;;4991679;28;20049;-73
2022/01/30 05:07:28;;;;;;;41.28;25.27;;;-1.90;99.90;;;;;;4991869;28;20066;-72
2022/01/30 05:09:56;;;;;;;44.55;24.77;;;-1.90;99.90;;;;;;4991648;28;20042;-73
2022/01/30 05:12:26;;;;;;;42.92;25.30;;;-1.80;99.90;;;;;;4991214;28;20405;-73
2022/01/30 05:14:53;;;;;;;47.28;24.45;;;-1.60;99.90;;;;;;4991326;28;20034;-74
2022/01/30 05:17:21;;;;;;;41.85;24.83;;;-1.50;99.90;;;;;;4991420;28;20050;-73
2022/01/30 05:19:48;;;;;;;44.53;23.42;;;-1.40;99.90;;;;;;4991936;28;20046;-72
2022/01/30 05:22:15;;;;;;;43.47;24.10;;;-1.30;99.90;;;;;;4995223;28;20042;-70
2022/01/30 05:24:43;;;;;;;40.47;24.50;;;-1.30;99.90;;;;;;4995488;28;20042;-76
2022/01/30 05:27:11;;;;;;;46.72;24.08;;;-1.20;99.90;;;;;;4995152;28;20053;-75
2022/01/30 05:29:38;;;;;;;41.80;23.88;;;-1.20;99.90;;;;;;4995276;28;20046;-74
2022/01/30 05:32:06;;;;;;;45.42;23.40;;;-1.40;99.90;;;;;;4995101;28;20537;-76
2022/01/30 05:34:34;;;;;;;34.53;20.92;;;-1.30;99.90;;;;;;4977908;28;20414;-72
2022/01/30 05:37:03;;;;;;;33.85;19.83;;;-1.30;99.90;;;;;;4995075;28;20038;-74
2022/01/30 05:39:30;;;;;;;34.03;21.38;;;-1.40;99.90;;;;;;4994902;28;20054;-72
2022/01/30 05:41:58;;;;;;;37.95;20.65;;;-1.50;99.90;;;;;;4994979;28;20065;-72
2022/01/30 05:44:39;;;;;;;30.23;19.75;;;-1.50;99.90;;;;;;4995002;28;20382;-75
2022/01/30 05:47:12;;;;;;;33.60;20.95;;;-1.50;99.90;;;;;;4995085;28;20371;-72
2022/01/30 05:49:40;;;;;;;38.10;20.38;;;-1.30;99.90;;;;;;4994509;28;20047;-73
2022/01/30 05:52:07;;;;;;;38.42;20.88;;;-1.00;99.90;;;;;;4994909;28;20050;-72
2022/01/30 05:54:34;;;;;;;36.45;19.13;;;-1.10;99.90;;;;;;4994859;28;20042;-73
2022/01/30 05:57:02;;;;;;;33.08;20.00;;;-1.20;99.90;;;;;;4994483;28;20050;-72
2022/01/30 05:59:29;;;;;;;32.67;18.70;;;-1.20;99.90;;;;;;4994860;28;20042;-72
2022/01/30 06:01:56;;;;;;;29.15;18.20;;;-1.20;99.90;;;;;;4994911;28;20057;-73
2022/01/30 06:04:24;;;;;;;27.73;17.40;;;-1.40;99.90;;;;;;4994268;28;20040;-74
2022/01/30 06:06:53;;;;;;;30.48;18.50;;;-1.50;99.90;;;;;;4994589;28;20053;-73
2022/01/30 06:09:20;;;;;;;33.22;20.05;;;-1.40;99.90;;;;;;4994516;28;20038;-71
2022/01/30 06:11:49;;;;;;;33.45;19.95;;;-1.20;99.90;;;;;;4994414;28;20125;-74
2022/01/30 06:14:18;;;;;;;32.92;19.67;;;-1.20;99.90;;;;;;4994296;28;20051;-72
2022/01/30 06:16:46;;;;;;;39.85;22.17;;;-1.30;99.90;;;;;;4994122;28;20058;-75
2022/01/30 06:19:13;;;;;;;34.17;20.92;;;-1.30;99.90;;;;;;4994235;28;20046;-74
2022/01/30 06:21:40;;;;;;;38.10;21.77;;;-1.10;99.90;;;;;;4994181;28;20050;-71
2022/01/30 06:24:08;;;;;;;35.58;21.42;;;-0.90;99.90;;;;;;4976865;28;20356;-74
2022/01/30 06:26:35;;;;;;;38.95;22.58;;;-0.90;99.90;;;;;;4993906;28;20034;-73
2022/01/30 06:29:03;;;;;;;42.70;22.35;;;-1.20;99.90;;;;;;4994314;28;20053;-74
2022/01/30 06:31:30;;;;;;;32.58;19.92;;;-1.00;99.90;;;;;;4993881;28;20050;-74
2022/01/30 06:33:58;;;;;;;37.67;22.02;;;-0.90;99.90;;;;;;4994105;28;20513;-74
2022/01/30 06:36:25;;;;;;;39.70;22.20;;;-0.80;99.90;;;;;;4994003;28;20049;-72
2022/01/30 06:38:53;;;;;;;39.25;22.67;;;-0.70;99.90;;;;;;4994701;28;20397;-73
2022/01/30 06:41:20;;;;;;;31.23;21.52;;;-0.60;99.90;;;;;;4993672;28;20045;-75
2022/01/30 06:43:48;;;;;;;32.00;20.63;;;-0.60;99.90;;;;;;4994015;28;20047;-74
2022/01/30 06:46:16;;;;;;;34.55;20.48;;;-0.50;99.90;;;;;;4993809;28;20038;-73
2022/01/30 06:48:43;;;;;;;34.67;22.33;;;-0.70;99.90;;;;;;4993777;28;20406;-73
2022/01/30 06:51:10;;;;;;;35.35;21.40;;;-0.60;99.90;;;;;;4993404;28;20394;-73
2022/01/30 06:53:38;;;;;;;34.83;22.02;;;-0.60;99.90;;;;;;4994107;28;20391;-74
2022/01/30 06:56:07;;;;;;;34.78;20.27;;;-0.50;99.90;;;;;;4993367;28;20046;-73
2022/01/30 06:58:34;;;;;;;33.80;21.40;;;-0.40;99.90;;;;;;4993776;28;20042;-73
2022/01/30 07:01:02;;;;;;;34.08;20.58;;;-0.50;99.90;;;;;;4993491;28;20035;-73
2022/01/30 07:03:31;;;;;;;36.33;21.95;;;-0.50;99.90;;;;;;4993630;28;20052;-76
2022/01/30 07:05:58;;;;;;;31.40;20.40;;;-0.40;99.90;;;;;;4993536;28;20047;-73
2022/01/30 07:08:26;;;;;;;35.28;20.80;;;-0.40;99.90;;;;;;4993727;28;20385;-76
2022/01/30 07:10:53;;;;;;;37.13;19.58;;;-0.50;99.90;;;;;;4993480;28;20493;-73
2022/01/30 07:13:20;;;;;;;30.58;18.85;;;-0.40;99.90;;;;;;4993613;28;20493;-73
2022/01/30 07:15:47;;;;;;;33.05;20.60;;;-0.30;99.90;;;;;;4993232;28;20402;-78
2022/01/30 07:18:15;;;;;;;34.92;20.88;;;-0.30;99.90;;;;;;4993261;28;20043;-76
2022/01/30 07:20:42;;;;;;;41.15;21.65;;;-0.40;99.90;;;;;;4992035;28;20049;-74
2022/01/30 07:23:09;;;;;;;30.70;19.90;;;-0.40;99.90;;;;;;4993604;28;20049;-73
2022/01/30 07:25:36;;;;;;;32.05;20.20;;;-0.30;99.90;;;;;;4992999;28;20050;-74
2022/01/30 07:28:04;;;;;;;28.40;19.60;;;-0.20;99.90;;;;;;4993552;28;20375;-75
2022/01/30 07:30:31;;;;;;;33.40;22.20;;;-0.20;99.90;;;;;;4993032;28;20046;-76
2022/01/30 07:32:58;;;;;;;35.25;21.25;;;-0.10;99.90;;;;;;4993167;28;20562;-73
2022/01/30 07:35:26;;;;;;;34.13;21.02;;;-0.10;99.90;;;;;;4993125;28;20038;-72
2022/01/30 07:37:53;;;;;;;33.50;21.50;;;0.10;99.90;;;;;;4993147;28;20055;-75
2022/01/30 07:40:21;;;;;;;35.75;22.00;;;0.10;99.90;;;;;;4992790;28;20117;-74
2022/01/30 07:42:48;;;;;;;37.42;21.38;;;-0.10;99.90;;;;;;4992502;28;20417;-74
2022/01/30 07:45:16;;;;;;;37.75;23.35;;;-0.50;99.90;;;;;;4992924;28;20069;-74
2022/01/30 07:47:43;;;;;;;39.22;24.30;;;-0.40;99.90;;;;;;4992758;28;20104;-76
2022/01/30 07:50:11;;;;;;;41.50;25.13;;;-0.50;99.90;;;;;;4992825;28;20054;-75
2022/01/30 07:52:38;;;;;;;38.78;24.50;;;-0.40;99.90;;;;;;4992743;28;20050;-75
2022/01/30 07:55:05;;;;;;;34.30;23.42;;;-0.10;99.90;;;;;;4992457;28;20054;-73
2022/01/30 07:57:33;;;;;;;40.92;25.67;;;-0.20;99.90;;;;;;4992698;28;20446;-72
2022/01/30 08:00:00;;;;;;;38.10;23.88;;;0.10;99.90;;;;;;4992760;28;20062;-75
2022/01/30 08:02:27;;;;;;;42.50;24.58;;;0.30;99.90;;;;;;4992174;28;20052;-74
2022/01/30 08:04:55;;;;;;;38.67;24.85;;;0.40;99.90;;;;;;4992540;28;20062;-75
2022/01/30 08:07:23;;;;;;;42.38;25.95;;;0.70;99.90;;;;;;4992471;28;20061;-75
2022/01/30 08:09:50;;;;;;;43.05;25.63;;;0.80;99.90;;;;;;4974832;28;20069;-75
2022/01/30 08:12:19;;;;;;;40.55;25.70;;;0.50;99.90;;;;;;4992228;28;20053;-75
2022/01/30 08:14:46;;;;;;;40.90;24.60;;;0.20;99.90;;;;;;4992323;28;20401;-73
2022/01/30 08:17:21;;;;;;;41.22;24.83;;;0.50;99.90;;;;;;4991810;28;20053;-75
2022/01/30 08:19:51;;;;;;;44.53;24.63;;;0.90;99.90;;;;;;4991949;28;20042;-75
2022/01/30 08:22:18;;;;;;;41.45;25.88;;;1.30;99.90;;;;;;4991962;28;20046;-74
2022/01/30 08:24:46;;;;;;;42.47;25.67;;;1.80;99.90;;;;;;4992320;28;20050;-75
2022/01/30 08:27:13;;;;;;;37.60;22.58;;;1.80;99.90;;;;;;4991858;28;20494;-75
2022/01/30 08:29:40;;;;;;;35.10;21.80;;;1.80;99.90;;;;;;4992173;28;20050;-75
2022/01/30 08:32:11;;;;;;;37.83;23.50;;;1.80;99.90;;;;;;4991942;28;20042;-76
2022/01/30 08:34:40;;;;;;;37.35;23.15;;;1.90;99.90;;;;;;4992097;28;20050;-75
2022/01/30 08:37:07;;;;;;;41.70;24.50;;;2.00;99.90;;;;;;4991487;28;20045;-74
2022/01/30 08:39:35;;;;;;;38.75;23.75;;;1.90;99.90;;;;;;4992244;28;20429;-72
2022/01/30 08:42:02;;;;;;;36.95;22.63;;;1.90;99.90;;;;;;4991824;28;20046;-72
2022/01/30 08:44:30;;;;;;;37.10;22.98;;;2.20;99.90;;;;;;4991998;28;20109;-73
2022/01/30 08:46:58;;;;;;;36.35;22.73;;;2.20;99.90;;;;;;4991513;28;20065;-73
2022/01/30 08:49:25;;;;;;;36.88;23.25;;;2.20;99.90;;;;;;4991920;28;20042;-75
2022/01/30 08:51:52;;;;;;;33.75;21.73;;;2.30;99.90;;;;;;4991394;28;20042;-74
2022/01/30 08:54:19;;;;;;;29.33;19.60;;;2.50;99.90;;;;;;4991914;28;20049;-73
2022/01/30 08:56:47;;;;;;;30.33;19.88;;;2.40;99.90;;;;;;4978178;28;20042;-72
2022/01/30 08:59:14;;;;;;;31.95;20.45;;;2.60;99.90;;;;;;4996072;28;20046;-72
2022/01/30 09:01:42;;;;;;;33.53;20.42;;;2.70;99.90;;;;;;4995700;28;20038;-73
2022/01/30 09:04:11;;;;;;;28.27;18.92;;;2.60;99.90;;;;;;4995759;28;20541;-71
2022/01/30 09:06:38;;;;;;;31.35;19.60;;;2.60;99.90;;;;;;4977777;28;20213;-71
2022/01/30 09:09:06;;;;;;;35.67;19.90;;;2.40;99.90;;;;;;4995917;28;20047;-73
2022/01/30 09:11:34;;;;;;;27.73;19.67;;;2.40;99.90;;;;;;4995424;28;20042;-72
2022/01/30 09:14:01;;;;;;;34.17;19.75;;;2.20;99.90;;;;;;4995640;28;20516;-73
2022/01/30 09:16:29;;;;;;;28.08;18.45;;;2.10;99.90;;;;;;4995010;28;20391;-73
2022/01/30 09:18:57;;;;;;;29.33;19.30;;;2.00;99.90;;;;;;4995595;28;20100;-75
2022/01/30 09:21:24;;;;;;;30.92;19.80;;;2.20;99.90;;;;;;4995238;28;20039;-73
2022/01/30 09:23:53;;;;;;;24.23;17.83;;;2.30;99.90;;;;;;4996074;28;20050;-73
2022/01/30 09:26:20;;;;;;;27.30;18.33;;;2.30;99.90;;;;;;4995458;28;20038;-73
2022/01/30 09:28:47;;;;;;;26.40;18.67;;;2.50;99.90;;;;;;4995047;28;20042;-73
2022/01/30 09:31:15;;;;;;;27.20;18.10;;;2.60;99.90;;;;;;4995398;28;20402;-72
2022/01/30 09:33:42;;;;;;;27.98;18.08;;;2.50;99.90;;;;;;4995210;28;20093;-73
2022/01/30 09:36:09;;;;;;;29.42;17.90;;;2.20;99.90;;;;;;4995042;28;20072;-73
2022/01/30 09:38:36;;;;;;;25.65;17.13;;;2.00;99.90;;;;;;4995516;28;20049;-72
2022/01/30 09:41:05;;;;;;;24.05;17.10;;;2.20;99.90;;;;;;4995307;28;20042;-70
2022/01/30 09:43:32;;;;;;;28.27;16.23;;;2.40;99.90;;;;;;4994940;28;20402;-73
2022/01/30 09:46:01;;;;;;;24.15;16.67;;;2.90;99.90;;;;;;4994827;28;20482;-72
2022/01/30 09:48:31;;;;;;;23.23;15.98;;;3.10;99.90;;;;;;4994984;28;20049;-73
2022/01/30 09:51:00;;;;;;;22.25;15.90;;;2.90;99.90;;;;;;4995031;28;20437;-72
2022/01/30 09:53:27;;;;;;;22.27;15.57;;;3.20;99.90;;;;;;4995053;28;20049;-72
2022/01/30 09:55:55;;;;;;;20.98;15.27;;;3.60;99.90;;;;;;4994795;28;20038;-70
2022/01/30 09:58:23;;;;;;;99.15;48.78;;;3.60;99.90;;;;;;4994690;28;20622;-70
2022/01/30 10:00:55;;;;;;;62.35;35.92;;;3.90;99.90;;;;;;4994806;28;20109;-70
2022/01/30 10:03:26;;;;;;;47.83;29.13;;;4.50;99.90;;;;;;4994213;28;20057;-72
2022/01/30 10:06:18;;;;;;;49.63;29.50;;;4.80;99.40;;;;;;4994445;28;20096;-71
2022/01/30 10:08:48;;;;;;;88.40;44.60;;;4.90;96.80;;;;;;4994880;28;20042;-71
2022/01/30 10:11:28;;;;;;;18.83;14.30;;;4.80;97.30;;;;;;4993821;28;20410;-74
2022/01/30 10:14:06;;;;;;;15.70;11.18;;;4.90;93.10;;;;;;4977044;28;20380;-71
2022/01/30 10:16:53;;;;;;;15.65;10.85;;;4.90;92.00;;;;;;4993904;28;20046;-73
2022/01/30 10:19:24;;;;;;;16.63;11.15;;;5.00;92.40;;;;;;4989955;28;20054;-73
2022/01/30 10:22:05;;;;;;;20.17;12.40;;;5.10;91.40;;;;;;4991965;28;20034;-73
2022/01/30 10:24:38;;;;;;;13.20;10.57;;;5.30;91.90;;;;;;4992846;28;20047;-72
2022/01/30 10:27:23;;;;;;;13.60;10.20;;;5.60;91.10;;;;;;4993972;28;20057;-71
2022/01/30 10:30:07;;;;;;;18.73;12.93;;;5.60;89.40;;;;;;4993754;28;20059;-69
2022/01/30 10:32:34;;;;;;;89.13;49.65;;;5.80;91.10;;;;;;4993870;28;20053;-72
2022/01/30 10:35:07;;;;;;;57.38;31.88;;;6.20;92.00;;;;;;4994249;28;20038;-71
2022/01/30 10:37:38;;;;;;;17.70;14.23;;;6.40;90.60;;;;;;4993570;28;20437;-70
2022/01/30 10:40:14;;;;;;;19.95;12.80;;;6.20;86.90;;;;;;4994082;28;20042;-73
2022/01/30 10:42:47;;;;;;;17.42;11.57;;;6.10;84.80;;;;;;4993801;28;20061;-70
2022/01/30 10:45:32;;;;;;;16.55;11.27;;;6.20;84.60;;;;;;4994042;28;20462;-71
2022/01/30 10:48:10;;;;;;;15.85;11.70;;;5.60;86.10;;;;;;4993022;28;20045;-73
2022/01/30 10:50:42;;;;;;;18.38;12.00;;;5.50;89.10;;;;;;4993902;28;20046;-75
2022/01/30 10:53:38;;;;;;;19.15;12.70;;;5.90;86.70;;;;;;4993432;28;20057;-74
2022/01/30 10:56:18;;;;;;;18.85;12.20;;;6.10;85.80;;;;;;4992186;28;20538;-69
2022/01/30 10:59:11;;;;;;;18.13;12.43;;;6.20;85.40;;;;;;4993618;28;20042;-72
2022/01/30 11:01:44;;;;;;;18.05;12.70;;;6.30;84.70;;;;;;4992446;28;20046;-78
2022/01/30 11:04:28;;;;;;;17.90;12.40;;;6.50;81.90;;;;;;4992958;28;20405;-72
2022/01/30 11:07:00;;;;;;;17.42;12.73;;;6.60;80.90;;;;;;4991768;28;20046;-74
2022/01/30 11:09:48;;;;;;;16.10;11.07;;;7.10;79.30;;;;;;4993277;28;20053;-75
2022/01/30 11:12:18;;;;;;;15.05;10.85;;;7.10;78.70;;;;;;4992210;28;20030;-75
2022/01/30 11:17:18;;;;;;;17.42;11.52;;;8.10;73.10;;;;;;4960347;28;20495;-78
2022/01/30 11:19:48;;;;;;;17.17;10.73;;;8.30;72.00;;;;;;4948667;28;20097;-75
2022/01/30 11:22:18;;;;;;;19.63;11.75;;;9.10;69.00;;;;;;4961818;28;20354;-72
2022/01/30 11:25:03;;;;;;;17.08;10.98;;;9.70;66.30;;;;;;4960493;28;20050;-77
2022/01/30 11:27:33;;;;;;;14.32;9.75;;;10.20;65.20;;;;;;4976710;28;20042;-74
2022/01/30 11:30:03;;;;;;;;;;;10.60;63.10;;;;;;4976158;28;20070;-73
2022/01/30 11:32:31;;;;;;;13.50;9.00;;;9.30;64.80;;;;;;4959451;28;19933;-76
2022/01/30 11:35:00;;;;;;;12.15;8.80;;;10.20;63.10;;;;;;4975459;28;20038;-77
2022/01/30 11:37:30;;;;;;;13.18;8.45;;;9.80;63.00;;;;;;4959440;28;20050;-74
2022/01/30 11:40:00;;;;;;;14.30;9.95;;;10.30;61.90;;;;;;4958930;28;20424;-73
2022/01/30 11:42:40;;;;;;;13.50;9.20;;;10.30;60.80;;;;;;4992235;28;20516;-81
2022/01/30 11:45:07;;;;;;;12.25;8.88;;;10.20;60.00;;;;;;4973453;28;20052;-80
2022/01/30 11:48:00;;;;;;;11.88;8.48;;;9.30;61.50;;;;;;4962298;28;20046;-72
2022/01/30 11:50:30;;;;;;;13.57;8.40;;;8.70;63.00;;;;;;4972713;28;20044;-72
2022/01/30 11:53:07;;;;;;;13.57;9.48;;;9.40;62.80;;;;;;4992081;28;20390;-72
2022/01/30 11:55:49;;;;;;;118.65;61.75;;;9.60;63.50;;;;;;4991843;28;20042;-73
2022/01/30 11:58:35;;;;;;;193.13;104.70;;;10.00;68.00;;;;;;4991892;28;20129;-71
2022/01/30 12:01:25;;;;;;;84.25;48.78;;;9.90;66.50;;;;;;4985820;28;20383;-72
2022/01/30 12:04:02;;;;;;;35.53;23.77;;;9.70;65.30;;;;;;4983844;28;20038;-74
2022/01/30 12:06:37;;;;;;;20.42;13.77;;;9.70;65.50;;;;;;4988503;28;20125;-71
2022/01/30 12:09:17;;;;;;;9.43;7.00;;;9.60;62.40;;;;;;4974174;28;20046;-75
2022/01/30 12:12:15;;;;;;;9.15;6.70;;;9.80;59.00;;;;;;4974577;28;20050;-69
2022/01/30 12:14:45;;;;;;;9.90;6.38;;;9.60;58.60;;;;;;4954480;28;20142;-73
2022/01/30 12:17:14;;;;;;;10.43;6.63;;;9.60;57.90;;;;;;4974677;28;20101;-74
2022/01/30 12:19:50;;;;;;;9.65;6.90;;;9.00;59.30;;;;;;4975108;28;20050;-71
2022/01/30 12:22:23;;;;;;;10.75;7.93;;;9.20;58.90;;;;;;4974976;28;20053;-73
2022/01/30 12:24:53;;;;;;;11.98;6.72;;;10.00;58.50;;;;;;4959189;28;20092;-73
2022/01/30 12:27:50;;;;;;;8.57;6.20;;;10.00;57.10;;;;;;4991900;28;20034;-76
2022/01/30 12:30:31;;;;;;;10.05;7.30;;;9.80;56.80;;;;;;4959045;28;20141;-70
2022/01/30 12:33:00;;;;;;;12.98;8.07;;;10.20;57.30;;;;;;4990707;28;20047;-71
2022/01/30 12:35:28;;;;;;;11.10;7.53;;;10.60;57.50;;;;;;4975403;28;20050;-73
2022/01/30 12:37:56;;;;;;;12.05;7.65;;;10.20;56.10;;;;;;4958781;28;20047;-75
2022/01/30 12:40:24;;;;;;;12.52;8.20;;;10.70;56.90;;;;;;4958925;28;20042;-76
2022/01/30 12:42:51;;;;;;;10.48;8.30;;;11.00;55.80;;;;;;4974701;28;20073;-75
2022/01/30 12:45:19;;;;;;;11.77;8.10;;;11.30;55.00;;;;;;4974057;28;20390;-72
2022/01/30 12:47:57;;;;;;;12.18;8.63;;;11.30;54.80;;;;;;4974615;28;20065;-72
2022/01/30 12:50:28;;;;;;;12.90;8.88;;;11.80;54.50;;;;;;4990788;28;20569;-71
2022/01/30 12:52:57;;;;;;;13.32;8.88;;;12.00;53.50;;;;;;4990641;28;20382;-71
2022/01/30 12:55:26;;;;;;;11.50;8.55;;;12.10;53.10;;;;;;4990130;28;20508;-70
2022/01/30 12:58:00;;;;;;;14.82;8.95;;;12.70;52.40;;;;;;4974591;28;20040;-69
2022/01/30 13:00:32;;;;;;;14.70;9.43;;;12.60;52.00;;;;;;4975104;28;20054;-71
2022/01/30 13:03:01;;;;;;;15.95;9.55;;;12.90;51.30;;;;;;4991507;28;20181;-71
2022/01/30 13:05:31;;;;;;;11.68;8.85;;;13.10;50.90;;;;;;4990834;28;20494;-73
2022/01/30 13:08:00;;;;;;;11.37;8.20;;;12.30;51.00;;;;;;4990373;28;20038;-72
2022/01/30 13:10:27;;;;;;;14.35;9.57;;;12.20;51.80;;;;;;4990139;28;20358;-71
2022/01/30 13:12:58;;;;;;;12.82;8.45;;;12.50;51.10;;;;;;4987765;28;20137;-71
2022/01/30 13:15:32;;;;;;;12.18;8.63;;;11.90;51.30;;;;;;4974199;28;20145;-72
2022/01/30 13:18:00;;;;;;;16.75;10.00;;;11.80;51.80;;;;;;4987594;28;20054;-74
2022/01/30 13:20:28;;;;;;;15.73;8.45;;;11.60;52.90;;;;;;4989293;28;20617;-74
2022/01/30 13:22:56;;;;;;;12.73;8.80;;;11.90;51.50;;;;;;4990318;28;20371;-73
2022/01/30 13:25:24;;;;;;;13.00;9.13;;;11.90;50.90;;;;;;4988882;28;20544;-71
2022/01/30 13:27:57;;;;;;;13.80;9.05;;;12.30;51.20;;;;;;4989764;28;20104;-68
2022/01/30 13:30:32;;;;;;;13.43;9.80;;;13.30;49.00;;;;;;4989176;28;20030;-69
2022/01/30 13:33:02;;;;;;;58.38;40.90;;;13.50;47.80;;;;;;4954764;28;20058;-72
2022/01/30 13:35:30;;;;;;;131.13;92.70;;;13.80;48.80;;;;;;4955501;28;20457;-70
2022/01/30 13:38:01;;;;;;;44.80;31.67;;;14.50;48.60;;;;;;5003473;28;20389;-73
2022/01/30 13:40:44;;;;;;;15.23;12.20;;;14.60;46.90;;;;;;4955762;28;20039;-71
2022/01/30 13:43:20;;;;;;;17.27;13.75;;;14.60;46.50;;;;;;4974057;28;20043;-68
2022/01/30 13:48:18;;;;;;;19.70;14.18;;;13.80;47.10;;;;;;4973824;28;20048;-71
2022/01/30 13:50:53;;;;;;;25.83;17.27;;;11.70;49.80;;;;;;4960774;28;20041;-73
2022/01/30 13:53:20;;;;;;;28.30;19.40;;;10.60;53.20;;;;;;4994019;28;20034;-71